sensor_id;sensor_type;location;lat;lon;timestamp;pressure;altitude;pressure_sealevel;temperature;humidity
46366;BME280;72328;49.570;8.722;2023-12-20T00:02:21;99753.59;;;9.58;61.51
46366;BME280;72328;49.570;8.722;2023-12-20T00:06:21;99747.72;;;9.56;61.47
46366;BME280;72328;49.570;8.722;2023-12-20T00:10:22;99748.47;;;9.58;61.53
46366;BME280;72328;49.570;8.722;2023-12-20T00:14:23;99745.91;;;9.58;61.61
46366;BME280;72328;49.570;8.722;2023-12-20T00:18:23;99738.72;;;9.63;61.53
46366;BME280;72328;49.570;8.722;2023-12-20T00:22:24;99742.84;;;9.66;61.64
46366;BME280;72328;49.570;8.722;2023-12-20T00:26:24;99743.47;;;9.69;61.29
46366;BME280;72328;49.570;8.722;2023-12-20T00:30:25;99738.97;;;9.73;61.34
46366;BME280;72328;49.570;8.722;2023-12-20T00:34:26;99730.63;;;9.69;61.53
46366;BME280;72328;49.570;8.722;2023-12-20T00:38:26;99735.84;;;9.68;61.30
46366;BME280;72328;49.570;8.722;2023-12-20T00:42:27;99734.84;;;9.70;61.42
46366;BME280;72328;49.570;8.722;2023-12-20T00:46:28;99729.69;;;9.70;61.67
46366;BME280;72328;49.570;8.722;2023-12-20T00:50:28;99725.34;;;9.71;61.74
46366;BME280;72328;49.570;8.722;2023-12-20T00:54:29;99727.84;;;9.72;61.56
46366;BME280;72328;49.570;8.722;2023-12-20T00:58:31;99724.16;;;9.76;61.45
46366;BME280;72328;49.570;8.722;2023-12-20T01:02:31;99725.88;;;9.76;61.79
46366;BME280;72328;49.570;8.722;2023-12-20T01:06:32;99729.88;;;9.67;61.83
46366;BME280;72328;49.570;8.722;2023-12-20T01:10:33;99716.59;;;9.61;61.46
46366;BME280;72328;49.570;8.722;2023-12-20T01:14:33;99710.94;;;9.56;62.04
46366;BME280;72328;49.570;8.722;2023-12-20T01:18:34;99720.38;;;9.55;62.14
46366;BME280;72328;49.570;8.722;2023-12-20T01:22:35;99710.00;;;9.57;61.93
46366;BME280;72328;49.570;8.722;2023-12-20T01:26:36;99706.59;;;9.56;61.81
46366;BME280;72328;49.570;8.722;2023-12-20T01:30:36;99713.59;;;9.54;61.74
46366;BME280;72328;49.570;8.722;2023-12-20T01:34:37;99706.38;;;9.47;62.58
46366;BME280;72328;49.570;8.722;2023-12-20T01:38:38;99706.66;;;9.42;62.31
46366;BME280;72328;49.570;8.722;2023-12-20T01:42:39;99712.81;;;9.40;62.23
46366;BME280;72328;49.570;8.722;2023-12-20T01:46:40;99714.47;;;9.41;62.34
46366;BME280;72328;49.570;8.722;2023-12-20T01:50:41;99722.88;;;9.43;62.39
46366;BME280;72328;49.570;8.722;2023-12-20T01:54:43;99724.75;;;9.41;62.45
46366;BME280;72328;49.570;8.722;2023-12-20T01:58:45;99727.94;;;9.44;62.17
46366;BME280;72328;49.570;8.722;2023-12-20T02:02:46;99709.22;;;9.42;62.57
46366;BME280;72328;49.570;8.722;2023-12-20T02:06:48;99719.22;;;9.47;62.26
46366;BME280;72328;49.570;8.722;2023-12-20T02:10:49;99716.66;;;9.47;62.17
46366;BME280;72328;49.570;8.722;2023-12-20T02:14:50;99719.13;;;9.48;62.03
46366;BME280;72328;49.570;8.722;2023-12-20T02:18:50;99714.69;;;9.50;62.33
46366;BME280;72328;49.570;8.722;2023-12-20T02:22:51;99719.94;;;9.49;62.53
46366;BME280;72328;49.570;8.722;2023-12-20T02:26:51;99712.97;;;9.51;62.07
46366;BME280;72328;49.570;8.722;2023-12-20T02:30:52;99706.69;;;9.55;62.34
46366;BME280;72328;49.570;8.722;2023-12-20T02:34:53;99701.47;;;9.56;62.37
46366;BME280;72328;49.570;8.722;2023-12-20T02:38:54;99714.03;;;9.61;62.19
46366;BME280;72328;49.570;8.722;2023-12-20T02:42:54;99726.50;;;9.67;61.75
46366;BME280;72328;49.570;8.722;2023-12-20T02:46:55;99721.88;;;9.72;62.09
46366;BME280;72328;49.570;8.722;2023-12-20T02:50:56;99715.19;;;9.69;61.72
46366;BME280;72328;49.570;8.722;2023-12-20T02:54:57;99698.84;;;9.70;61.85
46366;BME280;72328;49.570;8.722;2023-12-20T02:58:57;99691.66;;;9.75;62.00
46366;BME280;72328;49.570;8.722;2023-12-20T03:02:58;99703.78;;;9.73;61.51
46366;BME280;72328;49.570;8.722;2023-12-20T03:07:00;99701.09;;;9.75;61.66
46366;BME280;72328;49.570;8.722;2023-12-20T03:11:00;99710.19;;;9.80;61.81
46366;BME280;72328;49.570;8.722;2023-12-20T03:15:01;99700.72;;;9.81;61.95
46366;BME280;72328;49.570;8.722;2023-12-20T03:19:02;99710.19;;;9.80;61.81
46366;BME280;72328;49.570;8.722;2023-12-20T03:23:03;99710.19;;;9.80;61.55
46366;BME280;72328;49.570;8.722;2023-12-20T03:27:04;99716.88;;;9.83;61.75
46366;BME280;72328;49.570;8.722;2023-12-20T03:31:05;99716.03;;;9.82;61.96
46366;BME280;72328;49.570;8.722;2023-12-20T03:35:06;99717.59;;;9.85;61.87
46366;BME280;72328;49.570;8.722;2023-12-20T03:39:06;99719.22;;;9.86;61.90
46366;BME280;72328;49.570;8.722;2023-12-20T03:43:07;99720.06;;;9.86;61.48
46366;BME280;72328;49.570;8.722;2023-12-20T03:47:08;99712.28;;;9.88;61.98
46366;BME280;72328;49.570;8.722;2023-12-20T03:51:08;99711.25;;;9.90;61.93
46366;BME280;72328;49.570;8.722;2023-12-20T03:55:09;99712.88;;;9.91;61.56
46366;BME280;72328;49.570;8.722;2023-12-20T03:59:10;99700.13;;;9.90;61.78
46366;BME280;72328;49.570;8.722;2023-12-20T04:03:11;99720.69;;;9.90;61.83
46366;BME280;72328;49.570;8.722;2023-12-20T04:07:13;99712.28;;;9.88;61.61
46366;BME280;72328;49.570;8.722;2023-12-20T04:11:15;99715.13;;;9.83;61.97
46366;BME280;72328;49.570;8.722;2023-12-20T04:15:15;99727.78;;;9.86;61.70
46366;BME280;72328;49.570;8.722;2023-12-20T04:19:16;99720.25;;;9.83;62.02
46366;BME280;72328;49.570;8.722;2023-12-20T04:23:16;99732.22;;;9.84;61.80
46366;BME280;72328;49.570;8.722;2023-12-20T04:27:17;99737.16;;;9.87;61.92
46366;BME280;72328;49.570;8.722;2023-12-20T04:31:18;99737.84;;;9.89;61.96
46366;BME280;72328;49.570;8.722;2023-12-20T04:35:18;99735.50;;;9.86;62.11
46366;BME280;72328;49.570;8.722;2023-12-20T04:39:19;99738.16;;;9.85;61.87
46366;BME280;72328;49.570;8.722;2023-12-20T04:43:20;99733.31;;;9.80;62.05
46366;BME280;72328;49.570;8.722;2023-12-20T04:47:21;99754.53;;;9.84;62.21
46366;BME280;72328;49.570;8.722;2023-12-20T04:51:22;99757.09;;;9.84;62.36
46366;BME280;72328;49.570;8.722;2023-12-20T04:55:22;99755.34;;;9.84;62.15
46366;BME280;72328;49.570;8.722;2023-12-20T04:59:23;99762.84;;;9.87;61.96
46366;BME280;72328;49.570;8.722;2023-12-20T05:03:24;99759.19;;;9.91;62.13
46366;BME280;72328;49.570;8.722;2023-12-20T05:07:24;99764.72;;;9.85;62.46
46366;BME280;72328;49.570;8.722;2023-12-20T05:11:25;99772.81;;;9.79;62.67
46366;BME280;72328;49.570;8.722;2023-12-20T05:15:25;99776.59;;;9.74;62.32
46366;BME280;72328;49.570;8.722;2023-12-20T05:19:27;99779.16;;;9.74;62.66
46366;BME280;72328;49.570;8.722;2023-12-20T05:23:28;99784.13;;;9.77;62.60
46366;BME280;72328;49.570;8.722;2023-12-20T05:27:28;99799.34;;;9.80;62.81
46366;BME280;72328;49.570;8.722;2023-12-20T05:31:31;99804.94;;;9.86;62.79
46366;BME280;72328;49.570;8.722;2023-12-20T05:35:32;99795.09;;;9.93;62.55
46366;BME280;72328;49.570;8.722;2023-12-20T05:39:32;99810.84;;;10.01;62.59
46366;BME280;72328;49.570;8.722;2023-12-20T05:43:33;99810.75;;;10.02;62.29
46366;BME280;72328;49.570;8.722;2023-12-20T05:47:34;99810.75;;;10.02;62.13
46366;BME280;72328;49.570;8.722;2023-12-20T05:51:34;99838.06;;;10.05;62.28
46366;BME280;72328;49.570;8.722;2023-12-20T05:55:35;99826.00;;;10.05;62.49
46366;BME280;72328;49.570;8.722;2023-12-20T05:59:36;99852.47;;;10.07;62.54
46366;BME280;72328;49.570;8.722;2023-12-20T06:03:36;99853.28;;;10.08;62.25
46366;BME280;72328;49.570;8.722;2023-12-20T06:07:37;99864.22;;;10.11;62.49
46366;BME280;72328;49.570;8.722;2023-12-20T06:11:37;99854.03;;;10.10;62.54
46366;BME280;72328;49.570;8.722;2023-12-20T06:15:38;99874.38;;;10.13;62.42
46366;BME280;72328;49.570;8.722;2023-12-20T06:19:40;99870.09;;;10.13;61.98
46366;BME280;72328;49.570;8.722;2023-12-20T06:23:43;99875.22;;;10.13;62.31
46366;BME280;72328;49.570;8.722;2023-12-20T06:27:43;99875.22;;;10.13;62.30
46366;BME280;72328;49.570;8.722;2023-12-20T06:31:44;99878.81;;;10.11;62.25
46366;BME280;72328;49.570;8.722;2023-12-20T06:35:44;99875.53;;;10.09;62.28
46366;BME280;72328;49.570;8.722;2023-12-20T06:39:45;99880.69;;;10.09;62.07
46366;BME280;72328;49.570;8.722;2023-12-20T06:43:46;99874.78;;;10.07;61.93
46366;BME280;72328;49.570;8.722;2023-12-20T06:47:47;99888.28;;;10.10;62.04
46366;BME280;72328;49.570;8.722;2023-12-20T06:51:48;99879.75;;;10.10;61.85
46366;BME280;72328;49.570;8.722;2023-12-20T06:55:48;99879.34;;;10.02;61.89
46366;BME280;72328;49.570;8.722;2023-12-20T06:59:49;99867.50;;;9.99;62.25
46366;BME280;72328;49.570;8.722;2023-12-20T07:03:50;99873.25;;;9.90;61.87
46366;BME280;72328;49.570;8.722;2023-12-20T07:07:51;99863.34;;;9.84;62.14
46366;BME280;72328;49.570;8.722;2023-12-20T07:11:52;99871.31;;;9.80;62.54
46366;BME280;72328;49.570;8.722;2023-12-20T07:15:53;99884.94;;;9.82;62.34
46366;BME280;72328;49.570;8.722;2023-12-20T07:19:53;99881.13;;;9.87;61.95
46366;BME280;72328;49.570;8.722;2023-12-20T07:23:54;99873.97;;;9.92;62.27
46366;BME280;72328;49.570;8.722;2023-12-20T07:27:55;99880.50;;;9.98;61.94
46366;BME280;72328;49.570;8.722;2023-12-20T07:31:55;99873.97;;;9.92;61.51
46366;BME280;72328;49.570;8.722;2023-12-20T07:35:56;99876.00;;;9.87;61.60
46366;BME280;72328;49.570;8.722;2023-12-20T07:39:57;99880.22;;;9.88;61.66
46366;BME280;72328;49.570;8.722;2023-12-20T07:43:57;99895.47;;;9.91;61.94
46366;BME280;72328;49.570;8.722;2023-12-20T07:47:59;99902.88;;;9.96;61.60
46366;BME280;72328;49.570;8.722;2023-12-20T07:52:00;99896.28;;;9.92;61.94
46366;BME280;72328;49.570;8.722;2023-12-20T07:56:01;99904.91;;;9.91;62.00
46366;BME280;72328;49.570;8.722;2023-12-20T08:00:02;99909.13;;;9.92;61.77
46366;BME280;72328;49.570;8.722;2023-12-20T08:04:04;99921.91;;;9.93;61.76
46366;BME280;72328;49.570;8.722;2023-12-20T08:08:05;99918.22;;;9.97;62.04
46366;BME280;72328;49.570;8.722;2023-12-20T08:12:06;99922.09;;;10.04;62.15
46366;BME280;72328;49.570;8.722;2023-12-20T08:16:07;99916.16;;;10.04;61.90
46366;BME280;72328;49.570;8.722;2023-12-20T08:20:08;99925.31;;;10.08;62.22
46366;BME280;72328;49.570;8.722;2023-12-20T08:24:08;99917.31;;;10.12;61.91
46366;BME280;72328;49.570;8.722;2023-12-20T08:28:12;99933.56;;;10.13;61.76
46366;BME280;72328;49.570;8.722;2023-12-20T08:32:13;99921.63;;;10.12;62.13
46366;BME280;72328;49.570;8.722;2023-12-20T08:36:14;99929.63;;;10.07;61.80
46366;BME280;72328;49.570;8.722;2023-12-20T08:40:15;99928.72;;;10.08;62.03
46366;BME280;72328;49.570;8.722;2023-12-20T08:44:15;99929.72;;;10.06;62.59
46366;BME280;72328;49.570;8.722;2023-12-20T08:48:16;99940.66;;;10.09;62.14
46366;BME280;72328;49.570;8.722;2023-12-20T08:52:17;99944.31;;;10.19;61.99
46366;BME280;72328;49.570;8.722;2023-12-20T08:56:18;99937.84;;;10.26;62.36
46366;BME280;72328;49.570;8.722;2023-12-20T09:00:18;99939.31;;;10.30;62.14
46366;BME280;72328;49.570;8.722;2023-12-20T09:04:21;99941.78;;;10.32;62.11
46366;BME280;72328;49.570;8.722;2023-12-20T09:08:21;99948.50;;;10.34;62.32
46366;BME280;72328;49.570;8.722;2023-12-20T09:12:22;99950.06;;;10.37;62.35
46366;BME280;72328;49.570;8.722;2023-12-20T09:16:23;99951.63;;;10.39;62.23
46366;BME280;72328;49.570;8.722;2023-12-20T09:20:23;99941.00;;;10.44;62.28
46366;BME280;72328;49.570;8.722;2023-12-20T09:24:24;99947.72;;;10.46;62.41
46366;BME280;72328;49.570;8.722;2023-12-20T09:28:25;99953.41;;;10.51;61.86
46366;BME280;72328;49.570;8.722;2023-12-20T09:32:25;99958.56;;;10.51;62.17
46366;BME280;72328;49.570;8.722;2023-12-20T09:36:26;99948.03;;;10.42;62.00
46366;BME280;72328;49.570;8.722;2023-12-20T09:40:27;99962.34;;;10.46;62.13
46366;BME280;72328;49.570;8.722;2023-12-20T09:44:28;99962.53;;;10.43;61.85
46366;BME280;72328;49.570;8.722;2023-12-20T09:48:30;99971.47;;;10.37;62.25
46366;BME280;72328;49.570;8.722;2023-12-20T09:52:31;99967.13;;;10.38;62.24
46366;BME280;72328;49.570;8.722;2023-12-20T09:56:33;99959.72;;;10.33;62.33
46366;BME280;72328;49.570;8.722;2023-12-20T10:00:37;99952.63;;;10.37;62.40
46366;BME280;72328;49.570;8.722;2023-12-20T10:04:37;99945.84;;;10.36;62.38
46366;BME280;72328;49.570;8.722;2023-12-20T10:08:40;99954.00;;;10.42;62.23
46366;BME280;72328;49.570;8.722;2023-12-20T10:13:00;99959.66;;;10.47;62.36
46366;BME280;72328;49.570;8.722;2023-12-20T10:17:05;99965.25;;;10.54;61.98
46366;BME280;72328;49.570;8.722;2023-12-20T10:21:06;99964.78;;;10.61;61.68
46366;BME280;72328;49.570;8.722;2023-12-20T10:25:11;99950.69;;;10.67;62.29
46366;BME280;72328;49.570;8.722;2023-12-20T10:29:12;99939.38;;;10.69;61.67
46366;BME280;72328;49.570;8.722;2023-12-20T10:33:13;99928.25;;;10.69;61.98
46366;BME280;72328;49.570;8.722;2023-12-20T10:37:14;99952.38;;;10.80;62.09
46366;BME280;72328;49.570;8.722;2023-12-20T10:41:15;99936.81;;;10.82;62.05
46366;BME280;72328;49.570;8.722;2023-12-20T10:45:23;99938.28;;;10.86;61.68
46366;BME280;72328;49.570;8.722;2023-12-20T10:49:24;99937.16;;;10.90;62.20
46366;BME280;72328;49.570;8.722;2023-12-20T10:53:26;99939.31;;;10.96;62.45
46366;BME280;72328;49.570;8.722;2023-12-20T10:57:27;99937.59;;;10.96;62.17
46366;BME280;72328;49.570;8.722;2023-12-20T11:01:31;99941.50;;;11.02;62.52
46366;BME280;72328;49.570;8.722;2023-12-20T11:05:44;99928.00;;;11.11;62.11
46366;BME280;72328;49.570;8.722;2023-12-20T11:10:36;99911.63;;;11.12;62.13
46366;BME280;72328;49.570;8.722;2023-12-20T11:14:20;99914.81;;;11.15;62.26
46366;BME280;72328;49.570;8.722;2023-12-20T11:18:29;99901.53;;;11.09;61.76
46366;BME280;72328;49.570;8.722;2023-12-20T11:22:31;99907.91;;;11.16;62.05
46366;BME280;72328;49.570;8.722;2023-12-20T11:26:32;99899.47;;;11.14;61.88
46366;BME280;72328;49.570;8.722;2023-12-20T11:30:45;99908.13;;;11.13;61.95
46366;BME280;72328;49.570;8.722;2023-12-20T11:34:46;99902.06;;;11.14;61.63
46366;BME280;72328;49.570;8.722;2023-12-20T11:38:56;99882.66;;;11.08;61.58
46366;BME280;72328;49.570;8.722;2023-12-20T11:42:57;99888.53;;;11.10;61.30
46366;BME280;72328;49.570;8.722;2023-12-20T11:46:58;99900.28;;;11.14;61.36
46366;BME280;72328;49.570;8.722;2023-12-20T11:50:59;99900.50;;;11.11;61.45
46366;BME280;72328;49.570;8.722;2023-12-20T11:55:04;99891.09;;;11.10;61.19
46366;BME280;72328;49.570;8.722;2023-12-20T11:59:04;99891.41;;;11.06;61.48
46366;BME280;72328;49.570;8.722;2023-12-20T12:03:05;99881.31;;;11.03;61.53
46366;BME280;72328;49.570;8.722;2023-12-20T12:07:06;99888.13;;;11.04;61.62
46366;BME280;72328;49.570;8.722;2023-12-20T12:11:07;99885.75;;;11.01;61.54
46366;BME280;72328;49.570;8.722;2023-12-20T12:15:07;99899.66;;;10.98;61.59
46366;BME280;72328;49.570;8.722;2023-12-20T12:19:20;99899.75;;;10.97;61.60
46366;BME280;72328;49.570;8.722;2023-12-20T12:23:24;99892.44;;;10.91;61.26
46366;BME280;72328;49.570;8.722;2023-12-20T12:27:25;99878.94;;;10.87;61.69
46366;BME280;72328;49.570;8.722;2023-12-20T12:31:26;99875.16;;;10.93;61.64
46366;BME280;72328;49.570;8.722;2023-12-20T12:35:27;99880.06;;;10.96;61.18
46366;BME280;72328;49.570;8.722;2023-12-20T12:39:27;99882.34;;;11.00;61.17
46366;BME280;72328;49.570;8.722;2023-12-20T12:43:30;99877.19;;;11.00;61.05
46366;BME280;72328;49.570;8.722;2023-12-20T12:47:31;99884.19;;;10.98;60.88
46366;BME280;72328;49.570;8.722;2023-12-20T12:51:32;99893.69;;;10.98;60.89
46366;BME280;72328;49.570;8.722;2023-12-20T12:55:33;99898.84;;;10.98;61.01
46366;BME280;72328;49.570;8.722;2023-12-20T12:59:34;99899.66;;;10.98;60.87
46366;BME280;72328;49.570;8.722;2023-12-20T13:03:35;99889.03;;;10.90;60.95
46366;BME280;72328;49.570;8.722;2023-12-20T13:07:36;99875.84;;;10.82;61.13
46366;BME280;72328;49.570;8.722;2023-12-20T13:11:38;99866.25;;;10.72;61.31
46366;BME280;72328;49.570;8.722;2023-12-20T13:15:38;99878.38;;;10.70;61.46
46366;BME280;72328;49.570;8.722;2023-12-20T13:19:39;99868.91;;;10.70;61.09
46366;BME280;72328;49.570;8.722;2023-12-20T13:23:42;99836.88;;;10.62;61.61
46366;BME280;72328;49.570;8.722;2023-12-20T13:27:43;99811.41;;;10.57;61.16
46366;BME280;72328;49.570;8.722;2023-12-20T13:31:44;99814.84;;;10.58;61.64
46366;BME280;72328;49.570;8.722;2023-12-20T13:35:44;99803.50;;;10.60;61.33
46366;BME280;72328;49.570;8.722;2023-12-20T13:39:45;99781.56;;;10.67;61.43
46366;BME280;72328;49.570;8.722;2023-12-20T13:43:46;99772.00;;;10.69;61.41
46366;BME280;72328;49.570;8.722;2023-12-20T13:47:47;99771.06;;;10.70;61.27
46366;BME280;72328;49.570;8.722;2023-12-20T13:51:47;99783.94;;;10.70;61.09
46366;BME280;72328;49.570;8.722;2023-12-20T13:55:48;99778.06;;;10.68;60.89
46366;BME280;72328;49.570;8.722;2023-12-20T13:59:50;99786.94;;;10.64;60.89
46366;BME280;72328;49.570;8.722;2023-12-20T14:03:51;99780.34;;;10.60;60.89
46366;BME280;72328;49.570;8.722;2023-12-20T14:07:51;99760.34;;;10.64;61.23
46366;BME280;72328;49.570;8.722;2023-12-20T14:11:52;99764.66;;;10.63;61.35
46366;BME280;72328;49.570;8.722;2023-12-20T14:15:55;99766.34;;;10.64;61.03
46366;BME280;72328;49.570;8.722;2023-12-20T14:19:55;99764.78;;;10.62;60.91
46366;BME280;72328;49.570;8.722;2023-12-20T14:23:56;99778.19;;;10.67;60.97
46366;BME280;72328;49.570;8.722;2023-12-20T14:27:57;99766.53;;;10.61;61.13
46366;BME280;72328;49.570;8.722;2023-12-20T14:31:58;99773.13;;;10.65;61.34
46366;BME280;72328;49.570;8.722;2023-12-20T14:35:58;99759.75;;;10.60;60.60
46366;BME280;72328;49.570;8.722;2023-12-20T14:40:02;99769.63;;;10.66;61.20
46366;BME280;72328;49.570;8.722;2023-12-20T14:44:03;99761.38;;;10.61;60.96
46366;BME280;72328;49.570;8.722;2023-12-20T14:48:05;99769.72;;;10.65;60.82
46366;BME280;72328;49.570;8.722;2023-12-20T14:52:06;99767.75;;;10.68;60.89
46366;BME280;72328;49.570;8.722;2023-12-20T14:56:06;99771.88;;;10.71;61.23
46366;BME280;72328;49.570;8.722;2023-12-20T15:00:07;99773.44;;;10.73;61.10
46366;BME280;72328;49.570;8.722;2023-12-20T15:04:08;99771.28;;;10.67;60.38
46366;BME280;72328;49.570;8.722;2023-12-20T15:08:12;99751.59;;;10.54;60.80
46366;BME280;72328;49.570;8.722;2023-12-20T15:12:13;99750.88;;;10.52;60.75
46366;BME280;72328;49.570;8.722;2023-12-20T15:16:13;99771.75;;;10.47;61.02
46366;BME280;72328;49.570;8.722;2023-12-20T15:20:14;99767.75;;;10.43;60.79
46366;BME280;72328;49.570;8.722;2023-12-20T15:24:15;99757.47;;;10.43;61.07
46366;BME280;72328;49.570;8.722;2023-12-20T15:28:17;99760.97;;;10.42;60.79
46366;BME280;72328;49.570;8.722;2023-12-20T15:32:17;99762.81;;;10.40;60.75
46366;BME280;72328;49.570;8.722;2023-12-20T15:36:21;99760.97;;;10.42;60.82
46366;BME280;72328;49.570;8.722;2023-12-20T15:40:22;99758.28;;;10.44;60.79
46366;BME280;72328;49.570;8.722;2023-12-20T15:44:22;99768.38;;;10.47;60.52
46366;BME280;72328;49.570;8.722;2023-12-20T15:48:23;99758.88;;;10.47;60.85
46366;BME280;72328;49.570;8.722;2023-12-20T15:52:28;99754.59;;;10.48;60.78
46366;BME280;72328;49.570;8.722;2023-12-20T15:56:29;99743.25;;;10.50;60.48
46366;BME280;72328;49.570;8.722;2023-12-20T16:00:29;99755.50;;;10.47;60.33
46366;BME280;72328;49.570;8.722;2023-12-20T16:04:31;99764.03;;;10.47;60.87
46366;BME280;72328;49.570;8.722;2023-12-20T16:08:32;99766.84;;;10.44;60.59
46366;BME280;72328;49.570;8.722;2023-12-20T16:12:32;99766.13;;;10.42;60.63
46366;BME280;72328;49.570;8.722;2023-12-20T16:16:33;99765.91;;;10.45;60.88
46366;BME280;72328;49.570;8.722;2023-12-20T16:20:34;99758.09;;;10.47;60.53
46366;BME280;72328;49.570;8.722;2023-12-20T16:24:34;99760.44;;;10.50;60.43
46366;BME280;72328;49.570;8.722;2023-12-20T16:28:35;99768.28;;;10.48;60.49
46366;BME280;72328;49.570;8.722;2023-12-20T16:32:36;99769.41;;;10.44;60.98
46366;BME280;72328;49.570;8.722;2023-12-20T16:36:51;99770.13;;;10.46;60.54
46366;BME280;72328;49.570;8.722;2023-12-20T16:40:52;99783.00;;;10.46;60.57
46366;BME280;72328;49.570;8.722;2023-12-20T16:44:53;99764.34;;;10.43;60.97
46366;BME280;72328;49.570;8.722;2023-12-20T16:48:53;99760.75;;;10.45;60.97
46366;BME280;72328;49.570;8.722;2023-12-20T16:52:54;99759.03;;;10.46;60.91
46366;BME280;72328;49.570;8.722;2023-12-20T16:56:54;99758.50;;;10.41;60.87
46366;BME280;72328;49.570;8.722;2023-12-20T17:00:55;99773.72;;;10.44;60.86
46366;BME280;72328;49.570;8.722;2023-12-20T17:04:56;99761.88;;;10.41;60.95
46366;BME280;72328;49.570;8.722;2023-12-20T17:08:56;99754.47;;;10.37;60.98
46366;BME280;72328;49.570;8.722;2023-12-20T17:12:57;99750.97;;;10.38;60.87
46366;BME280;72328;49.570;8.722;2023-12-20T17:16:58;99747.59;;;10.37;61.27
46366;BME280;72328;49.570;8.722;2023-12-20T17:20:58;99746.56;;;10.40;60.70
46366;BME280;72328;49.570;8.722;2023-12-20T17:24:59;99739.47;;;10.43;60.89
46366;BME280;72328;49.570;8.722;2023-12-20T17:29:00;99732.66;;;10.42;61.21
46366;BME280;72328;49.570;8.722;2023-12-20T17:33:01;99732.44;;;10.45;60.77
46366;BME280;72328;49.570;8.722;2023-12-20T17:37:02;99731.31;;;10.49;60.67
46366;BME280;72328;49.570;8.722;2023-12-20T17:41:03;99736.06;;;10.55;60.54
46366;BME280;72328;49.570;8.722;2023-12-20T17:45:04;99719.91;;;10.53;61.13
46366;BME280;72328;49.570;8.722;2023-12-20T17:49:05;99736.06;;;10.55;60.93
46366;BME280;72328;49.570;8.722;2023-12-20T17:53:06;99719.16;;;10.51;60.97
46366;BME280;72328;49.570;8.722;2023-12-20T17:57:06;99720.41;;;10.58;60.94
46366;BME280;72328;49.570;8.722;2023-12-20T18:01:07;99722.16;;;10.58;60.49
46366;BME280;72328;49.570;8.722;2023-12-20T18:05:08;99730.91;;;10.55;61.09
46366;BME280;72328;49.570;8.722;2023-12-20T18:09:08;99724.13;;;10.54;61.03
46366;BME280;72328;49.570;8.722;2023-12-20T18:13:09;99738.53;;;10.57;61.06
46366;BME280;72328;49.570;8.722;2023-12-20T18:17:10;99737.59;;;10.58;60.58
46366;BME280;72328;49.570;8.722;2023-12-20T18:21:11;99725.75;;;10.55;61.08
46366;BME280;72328;49.570;8.722;2023-12-20T18:25:11;99727.50;;;10.55;61.03
46366;BME280;72328;49.570;8.722;2023-12-20T18:29:12;99725.94;;;10.52;61.05
46366;BME280;72328;49.570;8.722;2023-12-20T18:33:13;99729.47;;;10.51;61.13
46366;BME280;72328;49.570;8.722;2023-12-20T18:37:14;99717.53;;;10.50;60.77
46366;BME280;72328;49.570;8.722;2023-12-20T18:41:15;99707.03;;;10.53;60.95
46366;BME280;72328;49.570;8.722;2023-12-20T18:45:15;99715.47;;;10.55;60.80
46366;BME280;72328;49.570;8.722;2023-12-20T18:49:16;99711.75;;;10.59;61.22
46366;BME280;72328;49.570;8.722;2023-12-20T18:53:17;99706.28;;;10.64;61.11
46366;BME280;72328;49.570;8.722;2023-12-20T18:57:18;99703.72;;;10.64;61.00
46366;BME280;72328;49.570;8.722;2023-12-20T19:01:18;99699.19;;;10.67;60.85
46366;BME280;72328;49.570;8.722;2023-12-20T19:05:19;99713.50;;;10.71;60.87
46366;BME280;72328;49.570;8.722;2023-12-20T19:09:20;99707.00;;;10.66;61.05
46366;BME280;72328;49.570;8.722;2023-12-20T19:13:22;99709.47;;;10.67;61.14
46366;BME280;72328;49.570;8.722;2023-12-20T19:17:27;99676.44;;;10.61;61.04
46366;BME280;72328;49.570;8.722;2023-12-20T19:21:28;99675.13;;;10.56;61.46
46366;BME280;72328;49.570;8.722;2023-12-20T19:25:29;99689.72;;;10.55;61.47
46366;BME280;72328;49.570;8.722;2023-12-20T19:29:30;99676.84;;;10.55;61.36
46366;BME280;72328;49.570;8.722;2023-12-20T19:33:38;99674.09;;;10.58;61.00
46366;BME280;72328;49.570;8.722;2023-12-20T19:37:38;99681.25;;;10.66;61.24
46366;BME280;72328;49.570;8.722;2023-12-20T19:41:39;99675.06;;;10.68;61.29
46366;BME280;72328;49.570;8.722;2023-12-20T19:45:40;99646.47;;;10.60;60.83
46366;BME280;72328;49.570;8.722;2023-12-20T19:49:41;99653.16;;;10.63;61.28
46366;BME280;72328;49.570;8.722;2023-12-20T19:53:42;99653.06;;;10.64;61.39
46366;BME280;72328;49.570;8.722;2023-12-20T19:57:42;99656.94;;;10.70;61.24
46366;BME280;72328;49.570;8.722;2023-12-20T20:01:43;99654.09;;;10.74;61.25
46366;BME280;72328;49.570;8.722;2023-12-20T20:05:45;99653.84;;;10.77;61.31
46366;BME280;72328;49.570;8.722;2023-12-20T20:09:46;99653.66;;;10.80;60.54
46366;BME280;72328;49.570;8.722;2023-12-20T20:13:46;99654.09;;;10.74;60.93
46366;BME280;72328;49.570;8.722;2023-12-20T20:17:47;99644.06;;;10.70;60.98
46366;BME280;72328;49.570;8.722;2023-12-20T20:21:48;99649.31;;;10.68;61.19
46366;BME280;72328;49.570;8.722;2023-12-20T20:25:48;99645.72;;;10.71;60.98
46366;BME280;72328;49.570;8.722;2023-12-20T20:29:49;99646.75;;;10.68;61.06
46366;BME280;72328;49.570;8.722;2023-12-20T20:33:50;99633.06;;;10.68;61.22
46366;BME280;72328;49.570;8.722;2023-12-20T20:37:51;99638.31;;;10.66;61.45
46366;BME280;72328;49.570;8.722;2023-12-20T20:41:51;99631.53;;;10.65;60.80
46366;BME280;72328;49.570;8.722;2023-12-20T20:45:52;99620.63;;;10.62;60.90
46366;BME280;72328;49.570;8.722;2023-12-20T20:49:54;99613.84;;;10.61;61.10
46366;BME280;72328;49.570;8.722;2023-12-20T20:53:54;99608.56;;;10.62;61.51
46366;BME280;72328;49.570;8.722;2023-12-20T20:57:55;99608.69;;;10.61;61.38
46366;BME280;72328;49.570;8.722;2023-12-20T21:01:56;99616.41;;;10.61;61.18
46366;BME280;72328;49.570;8.722;2023-12-20T21:05:56;99602.72;;;10.60;61.42
46366;BME280;72328;49.570;8.722;2023-12-20T21:09:58;99595.31;;;10.56;61.47
46366;BME280;72328;49.570;8.722;2023-12-20T21:13:59;99596.44;;;10.52;61.51
46366;BME280;72328;49.570;8.722;2023-12-20T21:18:00;99577.94;;;10.47;61.29
46366;BME280;72328;49.570;8.722;2023-12-20T21:22:00;99575.56;;;10.44;61.36